CDT,Max TemperatureF,Mean TemperatureF,Min TemperatureF,Max Dew PointF,MeanDew PointF,Min DewpointF,Max Humidity, Mean Humidity, Min Humidity, Max Sea Level PressureIn, Mean Sea Level PressureIn, Min Sea Level PressureIn, Max VisibilityMiles, Mean VisibilityMiles, Min VisibilityMiles, Max Wind SpeedMPH, Mean Wind SpeedMPH, Max Gust SpeedMPH,PrecipitationIn, CloudCover, Events, WindDirDegrees
2013-6-1,85,77,69,73,70,66,90,76,61,30.06,30.01,29.92,10,10,10,15,4,20,T,5,Rain-Thunderstorm,182
2013-6-2,85,78,71,72,68,64,100,78,55,29.98,29.93,29.88,10,10,7,10,3,15,0.00,2,,257
2013-6-3,87,78,69,69,66,63,97,72,46,29.96,29.92,29.87,10,10,10,12,3,16,0.00,4,,320
2013-6-4,91,79,67,68,65,60,84,66,47,30.00,29.95,29.91,10,10,10,9,1,12,0.00,1,,28
2013-6-5,88,79,70,72,69,66,87,69,51,30.00,29.94,29.86,10,9,0,15,4,23,0.02,5,Fog-Rain-Thunderstorm,200
2013-6-6,83,76,69,72,68,66,97,81,65,29.90,29.83,29.74,10,9,2,7,2,10,0.05,5,Rain-Thunderstorm,156
2013-6-7,77,72,68,70,67,64,100,90,83,29.90,29.81,29.73,10,6,1,20,3,29,0.17,6,Rain-Thunderstorm,268
2013-6-8,83,75,66,70,67,65,100,78,55,30.04,29.97,29.89,10,4,0,8,1,20,0.00,4,Fog,197
2013-6-9,85,79,72,71,68,66,93,76,59,30.05,30.00,29.94,10,10,8,26,8,36,0.03,4,Rain-Thunderstorm,168
2013-6-10,86,79,71,74,70,68,93,77,61,30.03,29.99,29.94,10,8,0,14,6,18,0.77,5,Fog-Rain-Thunderstorm,207
2013-6-11,90,82,73,74,72,70,93,73,52,30.10,30.03,29.99,10,9,4,10,4,14,0.00,3,,236
2013-6-12,92,82,72,74,72,69,94,73,52,30.09,30.04,29.99,10,9,6,9,2,30,0.00,0,,283
2013-6-13,91,82,72,77,72,70,93,73,52,30.00,29.92,29.81,10,9,3,13,5,20,0.08,1,Rain-Thunderstorm,273
2013-6-14,86,77,68,71,64,58,90,65,40,29.99,29.93,29.87,10,10,9,10,3,16,0.00,0,,360
2013-6-15,89,77,64,67,64,61,93,68,42,30.08,30.03,29.99,10,10,10,13,3,17,0.00,1,,135
2013-6-16,92,81,69,72,68,63,93,72,50,30.12,30.04,29.98,10,10,8,15,3,21,0.00,2,Thunderstorm,207
2013-6-17,90,81,71,74,71,65,94,75,55,30.03,29.99,29.94,10,7,3,15,4,25,T,3,Rain,185
2013-6-18,82,77,71,73,71,67,100,87,74,29.97,29.93,29.88,10,5,0,16,4,23,1.54,7,Fog-Rain-Thunderstorm,223
2013-6-19,87,79,70,72,69,64,100,74,48,30.05,29.98,29.93,10,5,0,7,1,10,0.00,4,Fog,19
2013-6-20,88,79,70,70,67,64,90,69,48,30.17,30.11,30.05,10,10,8,9,2,16,0.00,1,,67
2013-6-21,88,79,69,69,66,63,90,69,48,30.21,30.15,30.11,10,10,7,9,3,14,0.00,1,,84
2013-6-22,88,79,69,67,64,62,90,67,43,30.19,30.12,30.05,10,10,6,7,2,13,0.00,1,,80
2013-6-23,87,78,68,71,68,65,90,75,59,30.17,30.11,30.06,10,10,6,9,2,13,0.00,3,,132
2013-6-24,82,77,72,74,72,70,94,84,74,30.22,30.16,30.10,10,8,0,12,3,20,0.31,5,Fog-Rain-Thunderstorm,164
2013-6-25,88,79,70,73,70,68,97,76,55,30.15,30.09,30.02,10,10,8,6,2,,0.00,0,,213
2013-6-26,89,81,72,73,72,70,94,75,55,30.08,30.02,29.94,10,9,5,10,3,17,0.00,1,,224
2013-6-27,91,83,74,76,74,70,94,79,64,30.01,29.93,29.85,10,8,1,9,4,23,0.03,3,Rain-Thunderstorm,225
2013-6-28,88,80,72,77,73,70,94,83,72,29.90,29.81,29.73,10,7,0,30,5,43,0.94,3,Fog-Rain-Thunderstorm,254
2013-6-29,88,80,71,73,70,62,100,72,43,29.78,29.73,29.67,10,7,0,12,3,16,T,4,Fog,237
2013-6-30,87,78,69,71,66,56,100,69,37,29.79,29.74,29.71,10,6,0,14,2,18,T,3,Fog-Rain,258